»·PEaware :: N716TH KSNA-KBUR

N716TH :: KSNA-KBUR

FLIGHT INFORMATION

Flight Status: Arrived
Operator: Privately registered:
United States
More flights under this callsign
Pilot: Danny R. (17997)
Aircraft: CESSNA 172 SKYHAWK
(C172)
More flights by this aircraft type
Origin: KSNA John Wayne-Orange Co
United States
Destination: KBUR Bob Hope-Burbank
United States
More flights between these airports :: More routes between these airports
Route: SLI V23 POPPR SMO125R SMO SMO311R SILEX
File this flight plan on PilotEdge
Remarks:
Altitude:
(Current/Filed)
4,000ft
Speed:
(Current/Filed)
100kts
Departed: 28-Mar-18 11:19 AM
Arrived: 28-Mar-18 12:06 PM
Distance/Time
Traveled:
40nm/0:47
Distance/Time
To Go:
Arrived

Flight Plot

Page will automatically refresh every two minutes.


Map Options




Map Legend


Flown Route
Filed Route
Departure Airport
Arrival Airport
Navaid (VOR, NDB)
Fix

Horizontal Profiles

Position Reports

Time Latitude Longitude Heading Altitude Ground
Speed
28-Mar-18 10:46 33.666633 -117.872740 219 60ft 0kts
28-Mar-18 10:47 33.666633 -117.872740 219 60ft 0kts
28-Mar-18 10:48 33.666633 -117.872740 219 60ft 0kts
28-Mar-18 10:49 33.666633 -117.872740 219 60ft 0kts
28-Mar-18 10:50 33.666633 -117.872740 219 60ft 0kts
28-Mar-18 10:51 33.666633 -117.872740 219 60ft 0kts
28-Mar-18 10:52 33.666633 -117.872740 219 60ft 0kts
28-Mar-18 10:53 33.666633 -117.872740 219 60ft 0kts
28-Mar-18 10:54 33.666633 -117.872740 219 60ft 0kts
28-Mar-18 10:55 33.666633 -117.872740 219 60ft 0kts
28-Mar-18 10:56 33.666633 -117.872740 219 60ft 0kts
28-Mar-18 10:57 33.666633 -117.872740 219 60ft 0kts
28-Mar-18 10:58 33.666633 -117.872740 219 60ft 0kts
28-Mar-18 10:59 33.666633 -117.872740 219 60ft 0kts
28-Mar-18 11:00 33.666633 -117.872740 219 60ft 0kts
28-Mar-18 11:01 33.666633 -117.872740 219 60ft 0kts
28-Mar-18 11:02 33.666633 -117.872740 219 60ft 0kts
28-Mar-18 11:03 33.666633 -117.872740 219 60ft 0kts
28-Mar-18 11:04 33.666633 -117.872740 219 60ft 0kts
28-Mar-18 11:05 33.666633 -117.872740 219 60ft 0kts
28-Mar-18 11:06 33.666633 -117.872740 219 60ft 0kts
28-Mar-18 11:07 33.666633 -117.872740 219 60ft 0kts
28-Mar-18 11:08 33.666633 -117.872740 219 60ft 0kts
28-Mar-18 11:09 33.666588 -117.872840 267 60ft 5kts
28-Mar-18 11:10 33.670296 -117.869745 42 60ft 22kts
28-Mar-18 11:11 33.673435 -117.867937 212 60ft 6kts
28-Mar-18 11:12 33.673324 -117.867956 147 60ft 0kts
28-Mar-18 11:13 33.673324 -117.867956 147 60ft 0kts
28-Mar-18 11:14 33.673324 -117.867956 147 60ft 0kts
28-Mar-18 11:15 33.674606 -117.866773 26 60ft 22kts
28-Mar-18 11:16 33.679932 -117.863543 330 60ft 8kts
28-Mar-18 11:17 33.680022 -117.863680 296 60ft 0kts
28-Mar-18 11:18 33.675051 -117.867460 209 174ft 69kts
28-Mar-18 11:19 33.657385 -117.879334 210 995ft 80kts
28-Mar-18 11:20 33.648739 -117.899839 324 1920ft 70kts
28-Mar-18 11:21 33.670815 -117.907762 355 2506ft 91kts
28-Mar-18 11:22 33.697581 -117.905772 341 2961ft 98kts
28-Mar-18 11:23 33.711559 -117.931626 291 3443ft 94kts
28-Mar-18 11:24 33.722369 -117.960602 292 3875ft 97kts
28-Mar-18 11:25 33.733156 -117.990321 293 3983ft 111kts
28-Mar-18 11:26 33.745955 -118.022601 290 3938ft 96kts
28-Mar-18 11:27 33.757435 -118.052448 293 3885ft 98kts
28-Mar-18 11:28 33.769332 -118.081367 293 3880ft 96kts
28-Mar-18 11:29 33.781279 -118.110379 293 3881ft 97kts
28-Mar-18 11:30 33.793138 -118.139184 293 3954ft 93kts
28-Mar-18 11:31 33.804363 -118.166891 293 4060ft 94kts
28-Mar-18 11:32 33.815183 -118.195814 293 4072ft 95kts
28-Mar-18 11:33 33.825941 -118.224297 293 4069ft 93kts
28-Mar-18 11:34 33.837383 -118.252260 293 4068ft 93kts
28-Mar-18 11:35 33.848810 -118.280179 293 4068ft 93kts
28-Mar-18 11:36 33.860224 -118.308088 293 4068ft 93kts
28-Mar-18 11:37 33.872185 -118.335581 314 4063ft 96kts
28-Mar-18 11:38 33.895455 -118.351216 318 4062ft 96kts
28-Mar-18 11:39 33.918655 -118.366664 344 4059ft 100kts
28-Mar-18 11:40 33.940069 -118.385472 316 4059ft 96kts
28-Mar-18 11:41 33.960283 -118.405933 316 4054ft 97kts
28-Mar-18 11:42 33.981368 -118.427273 316 4020ft 95kts
28-Mar-18 11:43 34.000588 -118.448245 313 4055ft 94kts
28-Mar-18 11:44 34.020304 -118.470398 313 4055ft 100kts
28-Mar-18 11:45 34.042425 -118.491500 346 4052ft 106kts
28-Mar-18 11:46 34.068182 -118.505150 314 4052ft 103kts
28-Mar-18 11:47 34.089019 -118.528839 313 4051ft 103kts
28-Mar-18 11:48 34.109593 -118.552243 313 4080ft 100kts
28-Mar-18 11:49 34.128904 -118.576647 294 4075ft 99kts
28-Mar-18 11:50 34.141428 -118.606496 294 4059ft 100kts
28-Mar-18 11:51 34.152252 -118.637777 294 4039ft 99kts
28-Mar-18 11:52 34.161724 -118.665372 293 4072ft 94kts
28-Mar-18 11:53 34.177096 -118.687170 16 4068ft 95kts
28-Mar-18 11:54 34.193053 -118.661850 58 4050ft 96kts
28-Mar-18 11:55 34.199269 -118.632723 91 4036ft 85kts
28-Mar-18 11:56 34.199144 -118.605646 91 4035ft 78kts
28-Mar-18 11:57 34.198264 -118.578292 90 3816ft 76kts
28-Mar-18 11:58 34.198943 -118.549285 94 3986ft 89kts
28-Mar-18 11:59 34.199031 -118.519196 100 3454ft 92kts
28-Mar-18 12:00 34.198672 -118.487078 99 2684ft 94kts
28-Mar-18 12:01 34.198783 -118.456349 96 2268ft 95kts
28-Mar-18 12:02 34.198220 -118.423707 97 1733ft 97kts
28-Mar-18 12:03 34.198386 -118.395455 99 1260ft 71kts
28-Mar-18 12:04 34.197971 -118.373380 90 917ft 61kts
28-Mar-18 12:05 34.198636 -118.364629 0 781ft 0kts
28-Mar-18 12:06 34.198962 -118.362465 90 781ft 15kts
28-Mar-18 12:07 34.200294 -118.359255 357 781ft 11kts
28-Mar-18 12:08 34.201246 -118.359245 260 781ft 0kts
28-Mar-18 12:09 34.201246 -118.359245 260 781ft 0kts
28-Mar-18 12:10 34.201246 -118.359245 260 781ft 0kts

Navigation Log

Ident Type
1. KSNA Airport
2. SLI Navaid
3. POPPR Fix
4. SMO Navaid
5. SILEX Fix
6. KBUR Airport